sensor_id;sensor_type;location;lat;lon;timestamp;temperature;humidity
22069;DHT22;13887;57.196;-2.100;2023-04-24T00:01:25;6.29;78.80
22069;DHT22;13887;57.196;-2.100;2023-04-24T00:03:52;6.29;78.69
22069;DHT22;13887;57.196;-2.100;2023-04-24T00:06:19;6.29;78.52
22069;DHT22;13887;57.196;-2.100;2023-04-24T00:08:46;6.26;78.45
22069;DHT22;13887;57.196;-2.100;2023-04-24T00:11:13;6.24;77.99
22069;DHT22;13887;57.196;-2.100;2023-04-24T00:13:40;6.21;78.24
22069;DHT22;13887;57.196;-2.100;2023-04-24T00:16:06;6.24;77.96
22069;DHT22;13887;57.196;-2.100;2023-04-24T00:18:33;6.20;77.41
22069;DHT22;13887;57.196;-2.100;2023-04-24T00:21:01;6.11;78.22
22069;DHT22;13887;57.196;-2.100;2023-04-24T00:23:27;6.02;78.84
22069;DHT22;13887;57.196;-2.100;2023-04-24T00:25:54;6.07;78.99
22069;DHT22;13887;57.196;-2.100;2023-04-24T00:28:21;6.07;79.50
22069;DHT22;13887;57.196;-2.100;2023-04-24T00:30:48;6.10;79.43
22069;DHT22;13887;57.196;-2.100;2023-04-24T00:33:15;6.07;80.01
22069;DHT22;13887;57.196;-2.100;2023-04-24T00:35:42;5.95;80.85
22069;DHT22;13887;57.196;-2.100;2023-04-24T00:38:10;5.81;81.68
22069;DHT22;13887;57.196;-2.100;2023-04-24T00:40:37;5.91;81.18
22069;DHT22;13887;57.196;-2.100;2023-04-24T00:43:04;5.98;80.87
22069;DHT22;13887;57.196;-2.100;2023-04-24T00:45:30;6.02;81.05
22069;DHT22;13887;57.196;-2.100;2023-04-24T00:47:58;6.02;81.21
22069;DHT22;13887;57.196;-2.100;2023-04-24T00:50:25;5.96;81.01
22069;DHT22;13887;57.196;-2.100;2023-04-24T00:52:53;6.01;80.71
22069;DHT22;13887;57.196;-2.100;2023-04-24T00:55:19;6.04;80.29
22069;DHT22;13887;57.196;-2.100;2023-04-24T00:57:47;6.01;80.43
22069;DHT22;13887;57.196;-2.100;2023-04-24T01:00:15;6.01;80.57
22069;DHT22;13887;57.196;-2.100;2023-04-24T01:02:45;6.05;80.45
22069;DHT22;13887;57.196;-2.100;2023-04-24T01:05:14;6.10;80.15
22069;DHT22;13887;57.196;-2.100;2023-04-24T01:07:43;6.09;80.24
22069;DHT22;13887;57.196;-2.100;2023-04-24T01:10:14;6.06;80.40
22069;DHT22;13887;57.196;-2.100;2023-04-24T01:12:41;6.04;80.45
22069;DHT22;13887;57.196;-2.100;2023-04-24T01:15:08;6.07;80.56
22069;DHT22;13887;57.196;-2.100;2023-04-24T01:17:35;6.12;80.30
22069;DHT22;13887;57.196;-2.100;2023-04-24T01:20:03;6.11;80.36
22069;DHT22;13887;57.196;-2.100;2023-04-24T01:22:35;6.11;80.34
22069;DHT22;13887;57.196;-2.100;2023-04-24T01:25:03;6.13;80.10
22069;DHT22;13887;57.196;-2.100;2023-04-24T01:27:30;6.12;80.17
22069;DHT22;13887;57.196;-2.100;2023-04-24T01:29:57;6.10;80.23
22069;DHT22;13887;57.196;-2.100;2023-04-24T01:32:25;6.14;80.01
22069;DHT22;13887;57.196;-2.100;2023-04-24T01:34:52;6.13;80.23
22069;DHT22;13887;57.196;-2.100;2023-04-24T01:37:19;6.12;80.00
22069;DHT22;13887;57.196;-2.100;2023-04-24T01:39:46;6.08;80.17
22069;DHT22;13887;57.196;-2.100;2023-04-24T01:42:13;6.05;79.82
22069;DHT22;13887;57.196;-2.100;2023-04-24T01:44:41;6.05;79.95
22069;DHT22;13887;57.196;-2.100;2023-04-24T01:47:08;6.01;79.69
22069;DHT22;13887;57.196;-2.100;2023-04-24T01:49:38;6.00;79.69
22069;DHT22;13887;57.196;-2.100;2023-04-24T01:52:05;6.06;79.56
22069;DHT22;13887;57.196;-2.100;2023-04-24T01:54:32;6.08;79.24
22069;DHT22;13887;57.196;-2.100;2023-04-24T01:57:01;6.06;79.21
22069;DHT22;13887;57.196;-2.100;2023-04-24T01:59:29;6.02;79.15
22069;DHT22;13887;57.196;-2.100;2023-04-24T02:01:57;6.01;78.85
22069;DHT22;13887;57.196;-2.100;2023-04-24T02:04:24;6.01;78.59
22069;DHT22;13887;57.196;-2.100;2023-04-24T02:06:51;5.97;78.48
22069;DHT22;13887;57.196;-2.100;2023-04-24T02:09:18;5.99;78.24
22069;DHT22;13887;57.196;-2.100;2023-04-24T02:11:45;5.99;78.33
22069;DHT22;13887;57.196;-2.100;2023-04-24T02:14:12;6.01;78.04
22069;DHT22;13887;57.196;-2.100;2023-04-24T02:16:39;6.02;78.04
22069;DHT22;13887;57.196;-2.100;2023-04-24T02:19:06;6.01;77.81
22069;DHT22;13887;57.196;-2.100;2023-04-24T02:21:33;5.94;77.87
22069;DHT22;13887;57.196;-2.100;2023-04-24T02:24:00;5.97;77.72
22069;DHT22;13887;57.196;-2.100;2023-04-24T02:26:27;5.91;77.58
22069;DHT22;13887;57.196;-2.100;2023-04-24T02:28:54;5.92;77.82
22069;DHT22;13887;57.196;-2.100;2023-04-24T02:31:21;5.95;77.43
22069;DHT22;13887;57.196;-2.100;2023-04-24T02:33:48;5.91;76.53
22069;DHT22;13887;57.196;-2.100;2023-04-24T02:36:15;5.94;76.24
22069;DHT22;13887;57.196;-2.100;2023-04-24T02:38:42;5.91;76.51
22069;DHT22;13887;57.196;-2.100;2023-04-24T02:41:09;5.94;76.39
22069;DHT22;13887;57.196;-2.100;2023-04-24T02:43:36;5.92;76.35
22069;DHT22;13887;57.196;-2.100;2023-04-24T02:46:03;5.92;76.51
22069;DHT22;13887;57.196;-2.100;2023-04-24T02:48:30;5.95;76.70
22069;DHT22;13887;57.196;-2.100;2023-04-24T02:50:57;5.97;76.61
22069;DHT22;13887;57.196;-2.100;2023-04-24T02:53:24;6.01;76.79
22069;DHT22;13887;57.196;-2.100;2023-04-24T02:55:51;5.98;76.76
22069;DHT22;13887;57.196;-2.100;2023-04-24T02:58:18;5.97;76.63
22069;DHT22;13887;57.196;-2.100;2023-04-24T03:00:46;5.95;76.95
22069;DHT22;13887;57.196;-2.100;2023-04-24T03:03:14;5.93;77.13
22069;DHT22;13887;57.196;-2.100;2023-04-24T03:05:42;5.96;77.18
22069;DHT22;13887;57.196;-2.100;2023-04-24T03:08:09;5.96;77.08
22069;DHT22;13887;57.196;-2.100;2023-04-24T03:10:36;5.98;77.04
22069;DHT22;13887;57.196;-2.100;2023-04-24T03:13:04;5.98;77.18
22069;DHT22;13887;57.196;-2.100;2023-04-24T03:15:31;6.02;76.88
22069;DHT22;13887;57.196;-2.100;2023-04-24T03:17:58;5.97;77.13
22069;DHT22;13887;57.196;-2.100;2023-04-24T03:20:25;5.98;77.10
22069;DHT22;13887;57.196;-2.100;2023-04-24T03:22:54;5.95;77.29
22069;DHT22;13887;57.196;-2.100;2023-04-24T03:25:21;5.98;77.30
22069;DHT22;13887;57.196;-2.100;2023-04-24T03:27:48;6.01;77.18
22069;DHT22;13887;57.196;-2.100;2023-04-24T03:30:24;6.04;76.97
22069;DHT22;13887;57.196;-2.100;2023-04-24T03:32:56;5.98;77.21
22069;DHT22;13887;57.196;-2.100;2023-04-24T03:35:27;5.90;77.12
22069;DHT22;13887;57.196;-2.100;2023-04-24T03:37:55;5.84;77.08
22069;DHT22;13887;57.196;-2.100;2023-04-24T03:40:41;5.86;76.82
22069;DHT22;13887;57.196;-2.100;2023-04-24T03:43:30;5.92;76.94
22069;DHT22;13887;57.196;-2.100;2023-04-24T03:46:00;5.96;76.86
22069;DHT22;13887;57.196;-2.100;2023-04-24T03:48:28;5.98;77.00
22069;DHT22;13887;57.196;-2.100;2023-04-24T03:50:56;5.99;76.77
22069;DHT22;13887;57.196;-2.100;2023-04-24T03:53:23;5.97;76.66
22069;DHT22;13887;57.196;-2.100;2023-04-24T03:55:50;5.95;76.15
22069;DHT22;13887;57.196;-2.100;2023-04-24T03:58:17;5.96;76.16
22069;DHT22;13887;57.196;-2.100;2023-04-24T04:00:44;5.92;75.52
22069;DHT22;13887;57.196;-2.100;2023-04-24T04:03:42;5.93;75.70
22069;DHT22;13887;57.196;-2.100;2023-04-24T04:06:10;5.93;74.78
22069;DHT22;13887;57.196;-2.100;2023-04-24T04:08:37;5.86;74.47
22069;DHT22;13887;57.196;-2.100;2023-04-24T04:11:04;5.90;74.54
22069;DHT22;13887;57.196;-2.100;2023-04-24T04:13:31;5.89;74.47
22069;DHT22;13887;57.196;-2.100;2023-04-24T04:15:59;5.92;74.74
22069;DHT22;13887;57.196;-2.100;2023-04-24T04:18:25;5.89;74.89
22069;DHT22;13887;57.196;-2.100;2023-04-24T04:20:52;5.86;74.91
22069;DHT22;13887;57.196;-2.100;2023-04-24T04:23:19;5.83;74.80
22069;DHT22;13887;57.196;-2.100;2023-04-24T04:26:06;5.82;75.01
22069;DHT22;13887;57.196;-2.100;2023-04-24T04:28:53;5.80;75.14
22069;DHT22;13887;57.196;-2.100;2023-04-24T04:31:20;5.81;75.16
22069;DHT22;13887;57.196;-2.100;2023-04-24T04:33:48;5.78;75.11
22069;DHT22;13887;57.196;-2.100;2023-04-24T04:36:15;5.74;75.00
22069;DHT22;13887;57.196;-2.100;2023-04-24T04:38:48;5.77;75.32
22069;DHT22;13887;57.196;-2.100;2023-04-24T04:41:35;5.72;75.05
22069;DHT22;13887;57.196;-2.100;2023-04-24T04:44:02;5.69;75.17
22069;DHT22;13887;57.196;-2.100;2023-04-24T04:46:31;5.67;75.15
22069;DHT22;13887;57.196;-2.100;2023-04-24T04:49:08;5.64;75.38
22069;DHT22;13887;57.196;-2.100;2023-04-24T04:51:35;5.66;75.52
22069;DHT22;13887;57.196;-2.100;2023-04-24T04:54:02;5.70;75.41
22069;DHT22;13887;57.196;-2.100;2023-04-24T04:56:30;5.70;75.78
22069;DHT22;13887;57.196;-2.100;2023-04-24T04:58:59;5.62;76.79
22069;DHT22;13887;57.196;-2.100;2023-04-24T05:01:26;5.47;78.75
22069;DHT22;13887;57.196;-2.100;2023-04-24T05:03:54;5.34;79.08
22069;DHT22;13887;57.196;-2.100;2023-04-24T05:06:22;5.33;79.02
22069;DHT22;13887;57.196;-2.100;2023-04-24T05:08:50;5.36;79.31
22069;DHT22;13887;57.196;-2.100;2023-04-24T05:11:27;5.37;79.20
22069;DHT22;13887;57.196;-2.100;2023-04-24T05:13:56;5.41;78.92
22069;DHT22;13887;57.196;-2.100;2023-04-24T05:16:31;5.46;78.75
22069;DHT22;13887;57.196;-2.100;2023-04-24T05:18:58;5.46;78.77
22069;DHT22;13887;57.196;-2.100;2023-04-24T05:21:30;5.46;78.79
22069;DHT22;13887;57.196;-2.100;2023-04-24T05:23:59;5.43;78.92
22069;DHT22;13887;57.196;-2.100;2023-04-24T05:26:41;5.46;79.11
22069;DHT22;13887;57.196;-2.100;2023-04-24T05:29:09;5.47;79.04
22069;DHT22;13887;57.196;-2.100;2023-04-24T05:31:36;5.51;79.05
22069;DHT22;13887;57.196;-2.100;2023-04-24T05:34:03;5.54;79.10
22069;DHT22;13887;57.196;-2.100;2023-04-24T05:36:31;5.52;79.38
22069;DHT22;13887;57.196;-2.100;2023-04-24T05:38:59;5.54;79.30
22069;DHT22;13887;57.196;-2.100;2023-04-24T05:41:26;5.55;79.35
22069;DHT22;13887;57.196;-2.100;2023-04-24T05:43:52;5.57;79.39
22069;DHT22;13887;57.196;-2.100;2023-04-24T05:46:20;5.55;79.46
22069;DHT22;13887;57.196;-2.100;2023-04-24T05:48:47;5.56;79.70
22069;DHT22;13887;57.196;-2.100;2023-04-24T05:51:14;5.59;79.56
22069;DHT22;13887;57.196;-2.100;2023-04-24T05:53:41;5.56;79.64
22069;DHT22;13887;57.196;-2.100;2023-04-24T05:56:08;5.53;79.95
22069;DHT22;13887;57.196;-2.100;2023-04-24T05:58:35;5.53;80.11
22069;DHT22;13887;57.196;-2.100;2023-04-24T06:01:04;5.53;80.33
22069;DHT22;13887;57.196;-2.100;2023-04-24T06:03:32;5.60;80.17
22069;DHT22;13887;57.196;-2.100;2023-04-24T06:06:02;5.59;80.67
22069;DHT22;13887;57.196;-2.100;2023-04-24T06:08:29;5.52;81.11
22069;DHT22;13887;57.196;-2.100;2023-04-24T06:10:56;5.42;81.64
22069;DHT22;13887;57.196;-2.100;2023-04-24T06:13:23;5.41;81.35
22069;DHT22;13887;57.196;-2.100;2023-04-24T06:16:10;5.40;81.10
22069;DHT22;13887;57.196;-2.100;2023-04-24T06:18:39;5.48;80.69
22069;DHT22;13887;57.196;-2.100;2023-04-24T06:21:06;5.48;80.46
22069;DHT22;13887;57.196;-2.100;2023-04-24T06:23:33;5.50;80.34
22069;DHT22;13887;57.196;-2.100;2023-04-24T06:26:00;5.50;80.37
22069;DHT22;13887;57.196;-2.100;2023-04-24T06:28:27;5.53;80.27
22069;DHT22;13887;57.196;-2.100;2023-04-24T06:30:54;5.48;80.40
22069;DHT22;13887;57.196;-2.100;2023-04-24T06:33:21;5.50;80.42
22069;DHT22;13887;57.196;-2.100;2023-04-24T06:35:49;5.51;80.55
22069;DHT22;13887;57.196;-2.100;2023-04-24T06:38:16;5.52;80.52
22069;DHT22;13887;57.196;-2.100;2023-04-24T06:40:43;5.51;80.78
22069;DHT22;13887;57.196;-2.100;2023-04-24T06:43:10;5.51;80.66
22069;DHT22;13887;57.196;-2.100;2023-04-24T06:45:38;5.50;81.22
22069;DHT22;13887;57.196;-2.100;2023-04-24T06:48:06;5.51;81.04
22069;DHT22;13887;57.196;-2.100;2023-04-24T06:50:33;5.47;81.52
22069;DHT22;13887;57.196;-2.100;2023-04-24T06:53:00;5.40;81.72
22069;DHT22;13887;57.196;-2.100;2023-04-24T06:55:27;5.41;81.78
22069;DHT22;13887;57.196;-2.100;2023-04-24T06:57:54;5.42;81.73
22069;DHT22;13887;57.196;-2.100;2023-04-24T07:00:21;5.46;81.59
22069;DHT22;13887;57.196;-2.100;2023-04-24T07:02:47;5.46;81.60
22069;DHT22;13887;57.196;-2.100;2023-04-24T07:05:15;5.42;81.75
22069;DHT22;13887;57.196;-2.100;2023-04-24T07:07:42;5.45;81.34
22069;DHT22;13887;57.196;-2.100;2023-04-24T07:10:09;5.50;80.95
22069;DHT22;13887;57.196;-2.100;2023-04-24T07:12:36;5.51;81.12
22069;DHT22;13887;57.196;-2.100;2023-04-24T07:15:05;5.50;81.17
22069;DHT22;13887;57.196;-2.100;2023-04-24T07:17:33;5.53;81.01
22069;DHT22;13887;57.196;-2.100;2023-04-24T07:20:01;5.55;81.11
22069;DHT22;13887;57.196;-2.100;2023-04-24T07:22:28;5.56;81.43
22069;DHT22;13887;57.196;-2.100;2023-04-24T07:24:55;5.60;81.25
22069;DHT22;13887;57.196;-2.100;2023-04-24T07:27:22;5.61;81.28
22069;DHT22;13887;57.196;-2.100;2023-04-24T07:29:48;5.63;81.36
22069;DHT22;13887;57.196;-2.100;2023-04-24T07:32:15;5.68;81.20
22069;DHT22;13887;57.196;-2.100;2023-04-24T07:34:42;5.71;81.07
22069;DHT22;13887;57.196;-2.100;2023-04-24T07:37:09;5.71;81.38
22069;DHT22;13887;57.196;-2.100;2023-04-24T07:39:36;5.69;81.74
22069;DHT22;13887;57.196;-2.100;2023-04-24T07:42:03;5.75;81.53
22069;DHT22;13887;57.196;-2.100;2023-04-24T07:44:31;5.74;81.60
22069;DHT22;13887;57.196;-2.100;2023-04-24T07:46:58;5.72;81.91
22069;DHT22;13887;57.196;-2.100;2023-04-24T07:49:25;5.76;81.88
22069;DHT22;13887;57.196;-2.100;2023-04-24T07:51:52;5.82;81.62
22069;DHT22;13887;57.196;-2.100;2023-04-24T07:54:19;5.87;81.53
22069;DHT22;13887;57.196;-2.100;2023-04-24T07:56:46;5.87;81.80
22069;DHT22;13887;57.196;-2.100;2023-04-24T07:59:13;5.90;81.36
22069;DHT22;13887;57.196;-2.100;2023-04-24T08:01:40;5.91;81.18
22069;DHT22;13887;57.196;-2.100;2023-04-24T08:04:07;5.94;81.23
22069;DHT22;13887;57.196;-2.100;2023-04-24T08:06:34;5.95;80.75
22069;DHT22;13887;57.196;-2.100;2023-04-24T08:09:01;6.01;80.40
22069;DHT22;13887;57.196;-2.100;2023-04-24T08:11:29;6.02;79.45
22069;DHT22;13887;57.196;-2.100;2023-04-24T08:13:56;6.02;78.17
22069;DHT22;13887;57.196;-2.100;2023-04-24T08:16:23;6.04;76.70
22069;DHT22;13887;57.196;-2.100;2023-04-24T08:18:53;6.02;76.27
22069;DHT22;13887;57.196;-2.100;2023-04-24T08:21:19;6.04;76.34
22069;DHT22;13887;57.196;-2.100;2023-04-24T08:23:47;6.05;75.96
22069;DHT22;13887;57.196;-2.100;2023-04-24T08:26:14;6.01;74.73
22069;DHT22;13887;57.196;-2.100;2023-04-24T08:28:41;5.99;74.69
22069;DHT22;13887;57.196;-2.100;2023-04-24T08:31:08;6.00;74.92
22069;DHT22;13887;57.196;-2.100;2023-04-24T08:33:35;6.02;75.81
22069;DHT22;13887;57.196;-2.100;2023-04-24T08:36:04;6.10;75.43
22069;DHT22;13887;57.196;-2.100;2023-04-24T08:38:31;6.15;75.62
22069;DHT22;13887;57.196;-2.100;2023-04-24T08:40:59;6.20;75.50
22069;DHT22;13887;57.196;-2.100;2023-04-24T08:43:27;6.17;74.82
22069;DHT22;13887;57.196;-2.100;2023-04-24T08:45:55;6.13;74.22
22069;DHT22;13887;57.196;-2.100;2023-04-24T08:48:23;6.08;74.29
22069;DHT22;13887;57.196;-2.100;2023-04-24T08:50:58;6.02;73.82
22069;DHT22;13887;57.196;-2.100;2023-04-24T08:53:26;5.99;73.35
22069;DHT22;13887;57.196;-2.100;2023-04-24T08:55:55;6.01;72.78
22069;DHT22;13887;57.196;-2.100;2023-04-24T08:58:24;5.99;72.57
22069;DHT22;13887;57.196;-2.100;2023-04-24T09:00:54;5.99;72.85
22069;DHT22;13887;57.196;-2.100;2023-04-24T09:03:22;6.01;73.32
22069;DHT22;13887;57.196;-2.100;2023-04-24T09:05:50;6.07;73.56
22069;DHT22;13887;57.196;-2.100;2023-04-24T09:08:18;6.11;72.94
22069;DHT22;13887;57.196;-2.100;2023-04-24T09:10:46;6.19;72.32
22069;DHT22;13887;57.196;-2.100;2023-04-24T09:13:18;6.20;72.82
22069;DHT22;13887;57.196;-2.100;2023-04-24T09:15:46;6.26;72.72
22069;DHT22;13887;57.196;-2.100;2023-04-24T09:18:13;6.21;72.45
22069;DHT22;13887;57.196;-2.100;2023-04-24T09:21:08;6.23;73.10
22069;DHT22;13887;57.196;-2.100;2023-04-24T09:23:35;6.21;73.60
22069;DHT22;13887;57.196;-2.100;2023-04-24T09:26:03;6.21;73.13
22069;DHT22;13887;57.196;-2.100;2023-04-24T09:28:38;6.20;73.37
22069;DHT22;13887;57.196;-2.100;2023-04-24T09:31:11;6.20;73.38
22069;DHT22;13887;57.196;-2.100;2023-04-24T09:34:04;6.20;72.16
22069;DHT22;13887;57.196;-2.100;2023-04-24T09:36:37;6.20;71.16
22069;DHT22;13887;57.196;-2.100;2023-04-24T09:39:07;6.20;71.01
22069;DHT22;13887;57.196;-2.100;2023-04-24T09:41:35;6.23;71.19
22069;DHT22;13887;57.196;-2.100;2023-04-24T09:44:14;6.24;71.02
22069;DHT22;13887;57.196;-2.100;2023-04-24T09:46:42;6.22;70.20
22069;DHT22;13887;57.196;-2.100;2023-04-24T09:49:13;6.23;69.04
22069;DHT22;13887;57.196;-2.100;2023-04-24T09:51:42;6.23;68.81
22069;DHT22;13887;57.196;-2.100;2023-04-24T09:54:19;6.23;68.45
22069;DHT22;13887;57.196;-2.100;2023-04-24T09:56:50;6.24;67.50
22069;DHT22;13887;57.196;-2.100;2023-04-24T09:59:18;6.26;66.15
22069;DHT22;13887;57.196;-2.100;2023-04-24T10:01:46;6.28;66.04
22069;DHT22;13887;57.196;-2.100;2023-04-24T10:04:20;6.27;66.25
22069;DHT22;13887;57.196;-2.100;2023-04-24T10:06:48;6.25;66.06
22069;DHT22;13887;57.196;-2.100;2023-04-24T10:09:26;6.27;66.17
22069;DHT22;13887;57.196;-2.100;2023-04-24T10:11:54;6.26;65.89
22069;DHT22;13887;57.196;-2.100;2023-04-24T10:14:24;6.26;65.27
22069;DHT22;13887;57.196;-2.100;2023-04-24T10:16:55;6.26;65.73
22069;DHT22;13887;57.196;-2.100;2023-04-24T10:19:25;6.26;66.96
22069;DHT22;13887;57.196;-2.100;2023-04-24T10:21:52;6.26;67.71
22069;DHT22;13887;57.196;-2.100;2023-04-24T10:24:21;6.27;68.16
22069;DHT22;13887;57.196;-2.100;2023-04-24T10:26:48;6.28;67.47
22069;DHT22;13887;57.196;-2.100;2023-04-24T10:29:17;6.25;65.60
22069;DHT22;13887;57.196;-2.100;2023-04-24T10:31:44;6.23;65.03
22069;DHT22;13887;57.196;-2.100;2023-04-24T10:34:15;6.23;63.69
22069;DHT22;13887;57.196;-2.100;2023-04-24T10:36:46;6.22;63.71
22069;DHT22;13887;57.196;-2.100;2023-04-24T10:39:15;6.25;62.71
22069;DHT22;13887;57.196;-2.100;2023-04-24T10:41:43;6.25;62.03
22069;DHT22;13887;57.196;-2.100;2023-04-24T10:44:11;6.28;62.11
22069;DHT22;13887;57.196;-2.100;2023-04-24T10:46:43;6.41;62.15
22069;DHT22;13887;57.196;-2.100;2023-04-24T10:49:11;6.54;61.76
22069;DHT22;13887;57.196;-2.100;2023-04-24T10:51:46;6.48;60.24
22069;DHT22;13887;57.196;-2.100;2023-04-24T10:54:26;6.42;59.83
22069;DHT22;13887;57.196;-2.100;2023-04-24T10:59:51;6.50;58.32
22069;DHT22;13887;57.196;-2.100;2023-04-24T11:02:38;6.75;57.95
22069;DHT22;13887;57.196;-2.100;2023-04-24T11:05:07;6.61;59.61
22069;DHT22;13887;57.196;-2.100;2023-04-24T11:08:11;6.52;60.89
22069;DHT22;13887;57.196;-2.100;2023-04-24T11:10:46;6.44;62.41
22069;DHT22;13887;57.196;-2.100;2023-04-24T11:13:21;6.40;61.92
22069;DHT22;13887;57.196;-2.100;2023-04-24T11:18:42;6.43;61.92
22069;DHT22;13887;57.196;-2.100;2023-04-24T11:21:12;6.46;61.41
22069;DHT22;13887;57.196;-2.100;2023-04-24T11:23:40;6.51;61.38
22069;DHT22;13887;57.196;-2.100;2023-04-24T11:26:18;6.55;61.67
22069;DHT22;13887;57.196;-2.100;2023-04-24T11:28:47;6.54;61.85
22069;DHT22;13887;57.196;-2.100;2023-04-24T11:31:34;6.55;63.02
22069;DHT22;13887;57.196;-2.100;2023-04-24T11:34:09;6.57;64.25
22069;DHT22;13887;57.196;-2.100;2023-04-24T11:36:36;6.56;64.06
22069;DHT22;13887;57.196;-2.100;2023-04-24T11:39:03;6.53;65.14
22069;DHT22;13887;57.196;-2.100;2023-04-24T11:41:32;6.51;65.02
22069;DHT22;13887;57.196;-2.100;2023-04-24T11:44:00;6.50;64.82
22069;DHT22;13887;57.196;-2.100;2023-04-24T11:46:28;6.48;63.47
22069;DHT22;13887;57.196;-2.100;2023-04-24T11:48:56;6.48;62.16
22069;DHT22;13887;57.196;-2.100;2023-04-24T11:51:24;6.50;62.00
22069;DHT22;13887;57.196;-2.100;2023-04-24T11:54:07;6.55;62.69
22069;DHT22;13887;57.196;-2.100;2023-04-24T11:56:34;6.59;62.71
22069;DHT22;13887;57.196;-2.100;2023-04-24T11:59:04;6.59;63.42
22069;DHT22;13887;57.196;-2.100;2023-04-24T12:01:42;6.59;64.79
22069;DHT22;13887;57.196;-2.100;2023-04-24T12:04:10;6.42;68.29
22069;DHT22;13887;57.196;-2.100;2023-04-24T12:06:37;6.24;71.65
22069;DHT22;13887;57.196;-2.100;2023-04-24T12:09:04;6.08;73.31
22069;DHT22;13887;57.196;-2.100;2023-04-24T12:11:53;6.10;73.22
22069;DHT22;13887;57.196;-2.100;2023-04-24T12:14:24;6.09;73.57
22069;DHT22;13887;57.196;-2.100;2023-04-24T12:16:51;6.12;73.32
22069;DHT22;13887;57.196;-2.100;2023-04-24T12:19:22;6.12;73.32
22069;DHT22;13887;57.196;-2.100;2023-04-24T12:22:02;6.20;72.32
22069;DHT22;13887;57.196;-2.100;2023-04-24T12:24:31;6.25;72.40
22069;DHT22;13887;57.196;-2.100;2023-04-24T12:26:58;6.28;70.72
22069;DHT22;13887;57.196;-2.100;2023-04-24T12:29:25;6.35;71.22
22069;DHT22;13887;57.196;-2.100;2023-04-24T12:31:52;6.38;70.26
22069;DHT22;13887;57.196;-2.100;2023-04-24T12:34:23;6.40;69.46
22069;DHT22;13887;57.196;-2.100;2023-04-24T12:36:51;6.39;69.26
22069;DHT22;13887;57.196;-2.100;2023-04-24T12:39:19;6.43;69.02
22069;DHT22;13887;57.196;-2.100;2023-04-24T12:41:54;6.45;69.34
22069;DHT22;13887;57.196;-2.100;2023-04-24T12:44:33;6.44;69.14
22069;DHT22;13887;57.196;-2.100;2023-04-24T12:47:01;6.43;68.03
22069;DHT22;13887;57.196;-2.100;2023-04-24T12:49:30;6.46;68.78
22069;DHT22;13887;57.196;-2.100;2023-04-24T12:51:57;6.48;67.33
22069;DHT22;13887;57.196;-2.100;2023-04-24T12:54:24;6.46;65.97
22069;DHT22;13887;57.196;-2.100;2023-04-24T12:56:51;6.46;65.60
22069;DHT22;13887;57.196;-2.100;2023-04-24T12:59:18;6.49;64.37
22069;DHT22;13887;57.196;-2.100;2023-04-24T13:01:45;6.50;64.09
22069;DHT22;13887;57.196;-2.100;2023-04-24T13:04:12;6.53;64.18
22069;DHT22;13887;57.196;-2.100;2023-04-24T13:06:39;6.57;64.95
22069;DHT22;13887;57.196;-2.100;2023-04-24T13:09:06;6.57;64.64
22069;DHT22;13887;57.196;-2.100;2023-04-24T13:11:32;6.57;64.74
22069;DHT22;13887;57.196;-2.100;2023-04-24T13:13:59;6.54;64.77
22069;DHT22;13887;57.196;-2.100;2023-04-24T13:16:26;6.52;64.59
22069;DHT22;13887;57.196;-2.100;2023-04-24T13:18:53;6.52;64.88
22069;DHT22;13887;57.196;-2.100;2023-04-24T13:21:20;6.54;64.59
22069;DHT22;13887;57.196;-2.100;2023-04-24T13:23:47;6.56;64.34
22069;DHT22;13887;57.196;-2.100;2023-04-24T13:26:13;6.57;64.55
22069;DHT22;13887;57.196;-2.100;2023-04-24T13:28:40;6.53;63.81
22069;DHT22;13887;57.196;-2.100;2023-04-24T13:31:07;6.50;63.28
22069;DHT22;13887;57.196;-2.100;2023-04-24T13:33:34;6.51;63.17
22069;DHT22;13887;57.196;-2.100;2023-04-24T13:36:01;6.50;62.00
22069;DHT22;13887;57.196;-2.100;2023-04-24T13:38:28;6.51;61.76
22069;DHT22;13887;57.196;-2.100;2023-04-24T13:40:55;6.55;62.02
22069;DHT22;13887;57.196;-2.100;2023-04-24T13:43:22;6.59;62.05
22069;DHT22;13887;57.196;-2.100;2023-04-24T13:45:49;6.61;62.63
22069;DHT22;13887;57.196;-2.100;2023-04-24T13:48:16;6.57;64.17
22069;DHT22;13887;57.196;-2.100;2023-04-24T13:50:44;6.46;66.27
22069;DHT22;13887;57.196;-2.100;2023-04-24T13:53:10;6.38;68.52
22069;DHT22;13887;57.196;-2.100;2023-04-24T13:55:37;6.34;68.84
22069;DHT22;13887;57.196;-2.100;2023-04-24T13:58:05;6.39;69.09
22069;DHT22;13887;57.196;-2.100;2023-04-24T14:00:33;6.42;69.99
22069;DHT22;13887;57.196;-2.100;2023-04-24T14:03:00;6.29;71.87
22069;DHT22;13887;57.196;-2.100;2023-04-24T14:05:27;6.17;72.58
22069;DHT22;13887;57.196;-2.100;2023-04-24T14:07:54;6.13;72.05
22069;DHT22;13887;57.196;-2.100;2023-04-24T14:10:21;6.17;71.84
22069;DHT22;13887;57.196;-2.100;2023-04-24T14:12:48;6.26;71.30
22069;DHT22;13887;57.196;-2.100;2023-04-24T14:15:15;6.33;71.38
22069;DHT22;13887;57.196;-2.100;2023-04-24T14:17:43;6.34;71.35
22069;DHT22;13887;57.196;-2.100;2023-04-24T14:20:11;6.33;71.69
22069;DHT22;13887;57.196;-2.100;2023-04-24T14:22:38;6.30;70.52
22069;DHT22;13887;57.196;-2.100;2023-04-24T14:25:06;6.33;70.20
22069;DHT22;13887;57.196;-2.100;2023-04-24T14:27:33;6.37;69.68
22069;DHT22;13887;57.196;-2.100;2023-04-24T14:30:01;6.43;69.54
22069;DHT22;13887;57.196;-2.100;2023-04-24T14:32:28;6.50;68.93
22069;DHT22;13887;57.196;-2.100;2023-04-24T14:34:55;6.56;68.84
22069;DHT22;13887;57.196;-2.100;2023-04-24T14:37:22;6.59;68.64
22069;DHT22;13887;57.196;-2.100;2023-04-24T14:39:49;6.61;67.52
22069;DHT22;13887;57.196;-2.100;2023-04-24T14:42:36;6.70;67.04
22069;DHT22;13887;57.196;-2.100;2023-04-24T14:45:03;6.71;66.86
22069;DHT22;13887;57.196;-2.100;2023-04-24T14:47:30;6.68;66.99
22069;DHT22;13887;57.196;-2.100;2023-04-24T14:49:58;6.64;67.07
22069;DHT22;13887;57.196;-2.100;2023-04-24T14:52:25;6.65;67.33
22069;DHT22;13887;57.196;-2.100;2023-04-24T14:54:52;6.68;67.01
22069;DHT22;13887;57.196;-2.100;2023-04-24T14:57:18;6.68;66.24
22069;DHT22;13887;57.196;-2.100;2023-04-24T14:59:45;6.65;64.95
22069;DHT22;13887;57.196;-2.100;2023-04-24T15:02:13;6.63;64.42
22069;DHT22;13887;57.196;-2.100;2023-04-24T15:04:42;6.56;63.55
22069;DHT22;13887;57.196;-2.100;2023-04-24T15:07:09;6.54;63.31
22069;DHT22;13887;57.196;-2.100;2023-04-24T15:09:36;6.49;62.82
22069;DHT22;13887;57.196;-2.100;2023-04-24T15:12:03;6.52;63.16
22069;DHT22;13887;57.196;-2.100;2023-04-24T15:14:30;6.53;63.16
22069;DHT22;13887;57.196;-2.100;2023-04-24T15:16:57;6.58;63.45
22069;DHT22;13887;57.196;-2.100;2023-04-24T15:19:24;6.63;63.24
22069;DHT22;13887;57.196;-2.100;2023-04-24T15:21:51;6.66;63.76
22069;DHT22;13887;57.196;-2.100;2023-04-24T15:24:18;6.50;67.81
22069;DHT22;13887;57.196;-2.100;2023-04-24T15:26:45;6.37;69.68
22069;DHT22;13887;57.196;-2.100;2023-04-24T15:29:12;6.31;70.37
22069;DHT22;13887;57.196;-2.100;2023-04-24T15:31:39;6.30;72.20
22069;DHT22;13887;57.196;-2.100;2023-04-24T15:34:06;6.25;74.01
22069;DHT22;13887;57.196;-2.100;2023-04-24T15:36:34;6.15;74.04
22069;DHT22;13887;57.196;-2.100;2023-04-24T15:39:02;6.16;73.67
22069;DHT22;13887;57.196;-2.100;2023-04-24T15:41:32;6.17;73.48
22069;DHT22;13887;57.196;-2.100;2023-04-24T15:43:58;6.17;73.20
22069;DHT22;13887;57.196;-2.100;2023-04-24T15:46:26;6.22;72.25